sensor_id;sensor_type;location;lat;lon;timestamp;temperature;humidity
20911;DHT22;10615;42.702;23.314;2023-07-29T00:00:42;20.30;61.60
20911;DHT22;10615;42.702;23.314;2023-07-29T00:01:43;20.30;61.70
20911;DHT22;10615;42.702;23.314;2023-07-29T00:02:44;20.20;61.80
20911;DHT22;10615;42.702;23.314;2023-07-29T00:03:44;20.20;61.90
20911;DHT22;10615;42.702;23.314;2023-07-29T00:04:45;20.20;62.00
20911;DHT22;10615;42.702;23.314;2023-07-29T00:05:47;20.10;62.10
20911;DHT22;10615;42.702;23.314;2023-07-29T00:06:48;20.10;62.10
20911;DHT22;10615;42.702;23.314;2023-07-29T00:07:49;20.10;62.20
20911;DHT22;10615;42.702;23.314;2023-07-29T00:08:49;20.10;62.30
20911;DHT22;10615;42.702;23.314;2023-07-29T00:09:50;20.10;62.40
20911;DHT22;10615;42.702;23.314;2023-07-29T00:10:50;20.00;62.40
20911;DHT22;10615;42.702;23.314;2023-07-29T00:11:51;20.00;62.40
20911;DHT22;10615;42.702;23.314;2023-07-29T00:12:52;19.90;62.40
20911;DHT22;10615;42.702;23.314;2023-07-29T00:13:53;19.90;62.60
20911;DHT22;10615;42.702;23.314;2023-07-29T00:14:54;19.90;62.80
20911;DHT22;10615;42.702;23.314;2023-07-29T00:15:55;19.90;62.80
20911;DHT22;10615;42.702;23.314;2023-07-29T00:16:56;19.90;62.80
20911;DHT22;10615;42.702;23.314;2023-07-29T00:17:57;19.90;62.90
20911;DHT22;10615;42.702;23.314;2023-07-29T00:18:57;19.90;62.80
20911;DHT22;10615;42.702;23.314;2023-07-29T00:19:58;19.90;62.80
20911;DHT22;10615;42.702;23.314;2023-07-29T00:20:59;19.90;62.80
20911;DHT22;10615;42.702;23.314;2023-07-29T00:21:59;19.90;62.60
20911;DHT22;10615;42.702;23.314;2023-07-29T00:23:00;19.90;62.60
20911;DHT22;10615;42.702;23.314;2023-07-29T00:24:02;19.90;62.80
20911;DHT22;10615;42.702;23.314;2023-07-29T00:25:02;19.90;62.80
20911;DHT22;10615;42.702;23.314;2023-07-29T00:26:03;20.00;62.80
20911;DHT22;10615;42.702;23.314;2023-07-29T00:27:04;20.00;62.70
20911;DHT22;10615;42.702;23.314;2023-07-29T00:28:05;19.90;62.70
20911;DHT22;10615;42.702;23.314;2023-07-29T00:29:05;19.90;62.80
20911;DHT22;10615;42.702;23.314;2023-07-29T00:30:06;19.90;63.20
20911;DHT22;10615;42.702;23.314;2023-07-29T00:31:07;19.90;62.90
20911;DHT22;10615;42.702;23.314;2023-07-29T00:32:08;19.90;63.10
20911;DHT22;10615;42.702;23.314;2023-07-29T00:33:08;19.90;63.20
20911;DHT22;10615;42.702;23.314;2023-07-29T00:34:09;19.90;63.30
20911;DHT22;10615;42.702;23.314;2023-07-29T00:35:10;19.90;63.40
20911;DHT22;10615;42.702;23.314;2023-07-29T00:36:11;19.90;63.70
20911;DHT22;10615;42.702;23.314;2023-07-29T00:37:11;19.90;63.70
20911;DHT22;10615;42.702;23.314;2023-07-29T00:38:12;19.80;63.90
20911;DHT22;10615;42.702;23.314;2023-07-29T00:39:13;19.80;64.00
20911;DHT22;10615;42.702;23.314;2023-07-29T00:40:21;19.90;64.20
20911;DHT22;10615;42.702;23.314;2023-07-29T00:41:22;19.80;64.20
20911;DHT22;10615;42.702;23.314;2023-07-29T00:42:24;19.80;64.40
20911;DHT22;10615;42.702;23.314;2023-07-29T00:43:25;19.70;64.40
20911;DHT22;10615;42.702;23.314;2023-07-29T00:44:25;19.70;64.50
20911;DHT22;10615;42.702;23.314;2023-07-29T00:45:27;19.60;64.70
20911;DHT22;10615;42.702;23.314;2023-07-29T00:46:29;19.60;64.90
20911;DHT22;10615;42.702;23.314;2023-07-29T00:47:30;19.60;65.10
20911;DHT22;10615;42.702;23.314;2023-07-29T00:48:30;19.50;65.20
20911;DHT22;10615;42.702;23.314;2023-07-29T00:49:31;19.50;65.30
20911;DHT22;10615;42.702;23.314;2023-07-29T00:50:32;19.50;65.60
20911;DHT22;10615;42.702;23.314;2023-07-29T00:51:33;19.50;65.80
20911;DHT22;10615;42.702;23.314;2023-07-29T00:52:34;19.40;65.80
20911;DHT22;10615;42.702;23.314;2023-07-29T00:53:35;19.40;65.80
20911;DHT22;10615;42.702;23.314;2023-07-29T00:54:35;19.50;65.90
20911;DHT22;10615;42.702;23.314;2023-07-29T00:55:37;19.40;65.90
20911;DHT22;10615;42.702;23.314;2023-07-29T00:56:37;19.40;66.10
20911;DHT22;10615;42.702;23.314;2023-07-29T00:57:38;19.40;66.30
20911;DHT22;10615;42.702;23.314;2023-07-29T00:58:40;19.40;66.40
20911;DHT22;10615;42.702;23.314;2023-07-29T00:59:41;19.40;66.50
20911;DHT22;10615;42.702;23.314;2023-07-29T01:00:42;19.40;66.40
20911;DHT22;10615;42.702;23.314;2023-07-29T01:01:43;19.40;66.50
20911;DHT22;10615;42.702;23.314;2023-07-29T01:02:44;19.40;66.60
20911;DHT22;10615;42.702;23.314;2023-07-29T01:03:44;19.40;66.60
20911;DHT22;10615;42.702;23.314;2023-07-29T01:04:45;19.40;66.60
20911;DHT22;10615;42.702;23.314;2023-07-29T01:08:25;19.30;66.90
20911;DHT22;10615;42.702;23.314;2023-07-29T01:11:03;19.30;67.10
20911;DHT22;10615;42.702;23.314;2023-07-29T01:12:42;19.30;67.10
20911;DHT22;10615;42.702;23.314;2023-07-29T01:16:52;19.30;67.10
20911;DHT22;10615;42.702;23.314;2023-07-29T01:17:56;19.40;67.10
20911;DHT22;10615;42.702;23.314;2023-07-29T01:19:00;19.40;67.10
20911;DHT22;10615;42.702;23.314;2023-07-29T01:20:13;19.40;67.00
20911;DHT22;10615;42.702;23.314;2023-07-29T01:21:14;19.40;66.90
20911;DHT22;10615;42.702;23.314;2023-07-29T01:22:16;19.40;67.00
20911;DHT22;10615;42.702;23.314;2023-07-29T01:23:24;19.40;66.90
20911;DHT22;10615;42.702;23.314;2023-07-29T01:24:24;19.40;66.90
20911;DHT22;10615;42.702;23.314;2023-07-29T01:25:25;19.20;66.60
20911;DHT22;10615;42.702;23.314;2023-07-29T01:26:26;19.40;66.80
20911;DHT22;10615;42.702;23.314;2023-07-29T01:27:29;19.40;66.80
20911;DHT22;10615;42.702;23.314;2023-07-29T01:28:30;19.40;66.80
20911;DHT22;10615;42.702;23.314;2023-07-29T01:29:31;19.40;66.80
20911;DHT22;10615;42.702;23.314;2023-07-29T01:30:39;19.30;66.70
20911;DHT22;10615;42.702;23.314;2023-07-29T01:31:44;19.30;66.80
20911;DHT22;10615;42.702;23.314;2023-07-29T01:33:20;19.30;66.90
20911;DHT22;10615;42.702;23.314;2023-07-29T01:34:45;19.30;66.90
20911;DHT22;10615;42.702;23.314;2023-07-29T01:35:55;19.30;67.00
20911;DHT22;10615;42.702;23.314;2023-07-29T01:36:58;19.30;67.20
20911;DHT22;10615;42.702;23.314;2023-07-29T01:38:27;19.20;68.00
20911;DHT22;10615;42.702;23.314;2023-07-29T01:39:26;19.20;67.20
20911;DHT22;10615;42.702;23.314;2023-07-29T01:40:28;19.20;67.20
20911;DHT22;10615;42.702;23.314;2023-07-29T01:41:29;19.20;67.30
20911;DHT22;10615;42.702;23.314;2023-07-29T01:42:30;19.20;67.40
20911;DHT22;10615;42.702;23.314;2023-07-29T01:43:32;19.20;67.50
20911;DHT22;10615;42.702;23.314;2023-07-29T01:44:33;19.20;67.60
20911;DHT22;10615;42.702;23.314;2023-07-29T01:45:34;19.20;67.80
20911;DHT22;10615;42.702;23.314;2023-07-29T01:46:38;19.10;67.80
20911;DHT22;10615;42.702;23.314;2023-07-29T01:47:39;19.10;67.80
20911;DHT22;10615;42.702;23.314;2023-07-29T01:48:42;19.10;67.80
20911;DHT22;10615;42.702;23.314;2023-07-29T01:49:42;19.10;67.80
20911;DHT22;10615;42.702;23.314;2023-07-29T01:50:43;19.10;68.00
20911;DHT22;10615;42.702;23.314;2023-07-29T01:51:44;19.10;68.10
20911;DHT22;10615;42.702;23.314;2023-07-29T01:52:44;19.10;68.10
20911;DHT22;10615;42.702;23.314;2023-07-29T01:53:45;19.10;68.10
20911;DHT22;10615;42.702;23.314;2023-07-29T01:54:46;19.10;68.10
20911;DHT22;10615;42.702;23.314;2023-07-29T01:55:46;19.10;68.10
20911;DHT22;10615;42.702;23.314;2023-07-29T01:56:47;19.10;68.20
20911;DHT22;10615;42.702;23.314;2023-07-29T01:57:48;19.10;68.30
20911;DHT22;10615;42.702;23.314;2023-07-29T01:58:48;19.10;68.40
20911;DHT22;10615;42.702;23.314;2023-07-29T01:59:50;19.10;68.40
20911;DHT22;10615;42.702;23.314;2023-07-29T02:00:51;19.00;68.50
20911;DHT22;10615;42.702;23.314;2023-07-29T02:01:51;19.10;68.60
20911;DHT22;10615;42.702;23.314;2023-07-29T02:02:52;19.00;68.50
20911;DHT22;10615;42.702;23.314;2023-07-29T02:03:53;19.10;68.80
20911;DHT22;10615;42.702;23.314;2023-07-29T02:04:55;19.10;68.50
20911;DHT22;10615;42.702;23.314;2023-07-29T02:05:56;19.10;68.50
20911;DHT22;10615;42.702;23.314;2023-07-29T02:06:57;19.10;68.60
20911;DHT22;10615;42.702;23.314;2023-07-29T02:07:57;19.10;68.60
20911;DHT22;10615;42.702;23.314;2023-07-29T02:08:58;19.00;68.60
20911;DHT22;10615;42.702;23.314;2023-07-29T02:09:59;19.00;68.80
20911;DHT22;10615;42.702;23.314;2023-07-29T02:10:59;19.00;68.80
20911;DHT22;10615;42.702;23.314;2023-07-29T02:12:00;19.00;68.80
20911;DHT22;10615;42.702;23.314;2023-07-29T02:13:01;19.00;69.00
20911;DHT22;10615;42.702;23.314;2023-07-29T02:14:01;19.00;69.00
20911;DHT22;10615;42.702;23.314;2023-07-29T02:15:03;19.00;69.10
20911;DHT22;10615;42.702;23.314;2023-07-29T02:16:04;19.00;69.10
20911;DHT22;10615;42.702;23.314;2023-07-29T02:17:04;19.00;69.10
20911;DHT22;10615;42.702;23.314;2023-07-29T02:18:05;18.90;69.20
20911;DHT22;10615;42.702;23.314;2023-07-29T02:19:07;18.90;69.50
20911;DHT22;10615;42.702;23.314;2023-07-29T02:20:08;18.80;69.70
20911;DHT22;10615;42.702;23.314;2023-07-29T02:21:11;18.70;69.90
20911;DHT22;10615;42.702;23.314;2023-07-29T02:22:13;18.70;70.40
20911;DHT22;10615;42.702;23.314;2023-07-29T02:23:15;18.70;70.70
20911;DHT22;10615;42.702;23.314;2023-07-29T02:24:17;18.70;71.00
20911;DHT22;10615;42.702;23.314;2023-07-29T02:25:18;18.70;71.30
20911;DHT22;10615;42.702;23.314;2023-07-29T02:26:18;18.60;71.30
20911;DHT22;10615;42.702;23.314;2023-07-29T02:27:19;18.60;71.50
20911;DHT22;10615;42.702;23.314;2023-07-29T02:28:20;18.60;72.10
20911;DHT22;10615;42.702;23.314;2023-07-29T02:29:20;18.50;71.80
20911;DHT22;10615;42.702;23.314;2023-07-29T02:30:21;18.50;72.00
20911;DHT22;10615;42.702;23.314;2023-07-29T02:31:24;18.40;72.10
20911;DHT22;10615;42.702;23.314;2023-07-29T02:32:25;18.40;72.30
20911;DHT22;10615;42.702;23.314;2023-07-29T02:33:26;18.30;72.60
20911;DHT22;10615;42.702;23.314;2023-07-29T02:34:26;18.30;75.20
20911;DHT22;10615;42.702;23.314;2023-07-29T02:35:27;18.30;72.80
20911;DHT22;10615;42.702;23.314;2023-07-29T02:36:28;18.20;72.80
20911;DHT22;10615;42.702;23.314;2023-07-29T02:37:29;18.20;73.00
20911;DHT22;10615;42.702;23.314;2023-07-29T02:38:29;18.20;73.10
20911;DHT22;10615;42.702;23.314;2023-07-29T02:39:30;18.20;73.20
20911;DHT22;10615;42.702;23.314;2023-07-29T02:40:31;18.20;73.40
20911;DHT22;10615;42.702;23.314;2023-07-29T02:41:32;18.20;73.30
20911;DHT22;10615;42.702;23.314;2023-07-29T02:42:32;18.20;73.20
20911;DHT22;10615;42.702;23.314;2023-07-29T02:43:33;18.20;73.30
20911;DHT22;10615;42.702;23.314;2023-07-29T02:44:34;18.20;73.30
20911;DHT22;10615;42.702;23.314;2023-07-29T02:45:34;18.20;73.30
20911;DHT22;10615;42.702;23.314;2023-07-29T02:46:35;18.20;73.40
20911;DHT22;10615;42.702;23.314;2023-07-29T02:47:37;18.20;73.50
20911;DHT22;10615;42.702;23.314;2023-07-29T02:48:38;18.20;73.60
20911;DHT22;10615;42.702;23.314;2023-07-29T02:49:39;18.20;73.70
20911;DHT22;10615;42.702;23.314;2023-07-29T02:50:40;18.20;73.70
20911;DHT22;10615;42.702;23.314;2023-07-29T02:51:40;18.20;73.60
20911;DHT22;10615;42.702;23.314;2023-07-29T02:52:41;18.20;73.70
20911;DHT22;10615;42.702;23.314;2023-07-29T02:53:42;18.20;73.80
20911;DHT22;10615;42.702;23.314;2023-07-29T02:54:43;18.20;73.80
20911;DHT22;10615;42.702;23.314;2023-07-29T02:55:43;18.30;73.90
20911;DHT22;10615;42.702;23.314;2023-07-29T02:56:44;18.30;73.90
20911;DHT22;10615;42.702;23.314;2023-07-29T02:57:45;18.20;73.90
20911;DHT22;10615;42.702;23.314;2023-07-29T02:58:45;18.20;73.80
20911;DHT22;10615;42.702;23.314;2023-07-29T02:59:46;18.20;73.80
20911;DHT22;10615;42.702;23.314;2023-07-29T03:00:47;18.20;73.80
20911;DHT22;10615;42.702;23.314;2023-07-29T03:01:49;18.20;73.80
20911;DHT22;10615;42.702;23.314;2023-07-29T03:02:50;18.20;73.90
20911;DHT22;10615;42.702;23.314;2023-07-29T03:03:51;18.20;73.90
20911;DHT22;10615;42.702;23.314;2023-07-29T03:04:51;18.20;74.00
20911;DHT22;10615;42.702;23.314;2023-07-29T03:06:01;18.10;74.10
20911;DHT22;10615;42.702;23.314;2023-07-29T03:07:02;18.10;74.10
20911;DHT22;10615;42.702;23.314;2023-07-29T03:08:03;18.10;74.40
20911;DHT22;10615;42.702;23.314;2023-07-29T03:09:04;18.10;74.60
20911;DHT22;10615;42.702;23.314;2023-07-29T03:10:05;18.00;74.60
20911;DHT22;10615;42.702;23.314;2023-07-29T03:11:08;18.00;74.80
20911;DHT22;10615;42.702;23.314;2023-07-29T03:12:09;18.00;74.80
20911;DHT22;10615;42.702;23.314;2023-07-29T03:13:10;18.00;74.80
20911;DHT22;10615;42.702;23.314;2023-07-29T03:14:11;18.00;74.70
20911;DHT22;10615;42.702;23.314;2023-07-29T03:15:12;18.10;74.70
20911;DHT22;10615;42.702;23.314;2023-07-29T03:16:15;18.10;74.50
20911;DHT22;10615;42.702;23.314;2023-07-29T03:17:17;18.10;74.50
20911;DHT22;10615;42.702;23.314;2023-07-29T03:18:17;18.10;75.20
20911;DHT22;10615;42.702;23.314;2023-07-29T03:19:18;18.10;74.20
20911;DHT22;10615;42.702;23.314;2023-07-29T03:20:19;18.10;74.10
20911;DHT22;10615;42.702;23.314;2023-07-29T03:21:20;18.20;74.00
20911;DHT22;10615;42.702;23.314;2023-07-29T03:22:21;18.20;73.60
20911;DHT22;10615;42.702;23.314;2023-07-29T03:23:21;18.20;73.30
20911;DHT22;10615;42.702;23.314;2023-07-29T03:24:22;18.20;73.50
20911;DHT22;10615;42.702;23.314;2023-07-29T03:25:23;18.30;73.10
20911;DHT22;10615;42.702;23.314;2023-07-29T03:26:24;18.30;73.00
20911;DHT22;10615;42.702;23.314;2023-07-29T03:27:24;18.30;72.90
20911;DHT22;10615;42.702;23.314;2023-07-29T03:28:29;18.30;72.80
20911;DHT22;10615;42.702;23.314;2023-07-29T03:29:29;18.30;72.60
20911;DHT22;10615;42.702;23.314;2023-07-29T03:30:30;18.40;72.60
20911;DHT22;10615;42.702;23.314;2023-07-29T03:31:31;18.40;72.50
20911;DHT22;10615;42.702;23.314;2023-07-29T03:32:31;18.40;72.30
20911;DHT22;10615;42.702;23.314;2023-07-29T03:33:32;18.50;72.30
20911;DHT22;10615;42.702;23.314;2023-07-29T03:34:33;18.50;72.10
20911;DHT22;10615;42.702;23.314;2023-07-29T03:35:34;18.60;71.80
20911;DHT22;10615;42.702;23.314;2023-07-29T03:36:34;18.60;71.60
20911;DHT22;10615;42.702;23.314;2023-07-29T03:37:35;18.70;71.60
20911;DHT22;10615;42.702;23.314;2023-07-29T03:38:36;18.60;71.30
20911;DHT22;10615;42.702;23.314;2023-07-29T03:39:40;18.70;71.30
20911;DHT22;10615;42.702;23.314;2023-07-29T03:40:41;18.80;71.20
20911;DHT22;10615;42.702;23.314;2023-07-29T03:41:42;18.80;71.00
20911;DHT22;10615;42.702;23.314;2023-07-29T03:42:42;18.90;70.80
20911;DHT22;10615;42.702;23.314;2023-07-29T03:43:43;18.90;70.60
20911;DHT22;10615;42.702;23.314;2023-07-29T03:44:44;19.00;70.50
20911;DHT22;10615;42.702;23.314;2023-07-29T03:45:44;19.10;70.10
20911;DHT22;10615;42.702;23.314;2023-07-29T03:46:45;19.20;69.80
20911;DHT22;10615;42.702;23.314;2023-07-29T03:47:46;19.30;69.70
20911;DHT22;10615;42.702;23.314;2023-07-29T03:48:46;19.40;69.40
20911;DHT22;10615;42.702;23.314;2023-07-29T03:49:47;19.50;69.40
20911;DHT22;10615;42.702;23.314;2023-07-29T03:50:48;19.60;69.10
20911;DHT22;10615;42.702;23.314;2023-07-29T03:51:48;19.80;68.60
20911;DHT22;10615;42.702;23.314;2023-07-29T03:52:49;19.90;68.40
20911;DHT22;10615;42.702;23.314;2023-07-29T03:53:50;20.10;68.00
20911;DHT22;10615;42.702;23.314;2023-07-29T03:54:51;20.30;67.50
20911;DHT22;10615;42.702;23.314;2023-07-29T03:55:51;20.50;66.60
20911;DHT22;10615;42.702;23.314;2023-07-29T03:56:52;20.60;66.10
20911;DHT22;10615;42.702;23.314;2023-07-29T03:57:53;20.80;65.70
20911;DHT22;10615;42.702;23.314;2023-07-29T03:58:53;20.90;64.70
20911;DHT22;10615;42.702;23.314;2023-07-29T04:00:02;21.00;64.30
20911;DHT22;10615;42.702;23.314;2023-07-29T04:01:03;21.10;63.70
20911;DHT22;10615;42.702;23.314;2023-07-29T04:02:05;21.20;63.50
20911;DHT22;10615;42.702;23.314;2023-07-29T04:03:05;21.30;63.20
20911;DHT22;10615;42.702;23.314;2023-07-29T04:04:06;21.50;62.90
20911;DHT22;10615;42.702;23.314;2023-07-29T04:05:07;21.60;62.30
20911;DHT22;10615;42.702;23.314;2023-07-29T04:06:11;21.80;61.80
20911;DHT22;10615;42.702;23.314;2023-07-29T04:07:11;22.00;61.30
20911;DHT22;10615;42.702;23.314;2023-07-29T04:08:12;22.30;60.50
20911;DHT22;10615;42.702;23.314;2023-07-29T04:09:13;22.60;59.70
20911;DHT22;10615;42.702;23.314;2023-07-29T04:10:14;22.90;59.00
20911;DHT22;10615;42.702;23.314;2023-07-29T04:11:15;23.20;58.40
20911;DHT22;10615;42.702;23.314;2023-07-29T04:12:15;23.40;57.80
20911;DHT22;10615;42.702;23.314;2023-07-29T04:13:16;23.50;57.30
20911;DHT22;10615;42.702;23.314;2023-07-29T04:14:17;23.70;56.90
20911;DHT22;10615;42.702;23.314;2023-07-29T04:15:18;24.00;56.30
20911;DHT22;10615;42.702;23.314;2023-07-29T04:16:19;24.20;55.80
20911;DHT22;10615;42.702;23.314;2023-07-29T04:17:20;24.40;55.30
20911;DHT22;10615;42.702;23.314;2023-07-29T04:18:20;24.70;54.80
20911;DHT22;10615;42.702;23.314;2023-07-29T04:20:22;25.30;52.80
20911;DHT22;10615;42.702;23.314;2023-07-29T04:21:23;25.60;52.60
20911;DHT22;10615;42.702;23.314;2023-07-29T04:22:23;25.70;52.00
20911;DHT22;10615;42.702;23.314;2023-07-29T04:23:24;25.90;51.50
20911;DHT22;10615;42.702;23.314;2023-07-29T04:24:25;26.00;51.00
20911;DHT22;10615;42.702;23.314;2023-07-29T04:25:25;26.20;50.70
20911;DHT22;10615;42.702;23.314;2023-07-29T04:26:26;26.40;50.40
20911;DHT22;10615;42.702;23.314;2023-07-29T04:27:27;26.70;50.00
20911;DHT22;10615;42.702;23.314;2023-07-29T04:28:27;26.80;49.20
20911;DHT22;10615;42.702;23.314;2023-07-29T04:29:28;27.00;48.90
20911;DHT22;10615;42.702;23.314;2023-07-29T04:30:29;27.20;48.50
20911;DHT22;10615;42.702;23.314;2023-07-29T04:31:30;27.40;48.10
20911;DHT22;10615;42.702;23.314;2023-07-29T04:32:30;27.70;47.70
20911;DHT22;10615;42.702;23.314;2023-07-29T04:33:31;27.80;47.30
20911;DHT22;10615;42.702;23.314;2023-07-29T04:34:32;28.00;46.80
20911;DHT22;10615;42.702;23.314;2023-07-29T04:35:32;28.30;46.50
20911;DHT22;10615;42.702;23.314;2023-07-29T04:36:33;28.70;45.80
20911;DHT22;10615;42.702;23.314;2023-07-29T04:37:34;29.00;45.30
20911;DHT22;10615;42.702;23.314;2023-07-29T04:38:37;29.20;44.80
20911;DHT22;10615;42.702;23.314;2023-07-29T04:39:38;29.60;44.20
20911;DHT22;10615;42.702;23.314;2023-07-29T04:40:38;29.90;43.50
20911;DHT22;10615;42.702;23.314;2023-07-29T04:41:39;30.30;43.00
20911;DHT22;10615;42.702;23.314;2023-07-29T04:42:40;30.50;42.30
20911;DHT22;10615;42.702;23.314;2023-07-29T04:43:40;30.90;41.90
20911;DHT22;10615;42.702;23.314;2023-07-29T04:44:41;31.00;41.10
20911;DHT22;10615;42.702;23.314;2023-07-29T04:45:45;31.20;40.80
20911;DHT22;10615;42.702;23.314;2023-07-29T04:46:46;31.40;40.40
20911;DHT22;10615;42.702;23.314;2023-07-29T04:47:46;31.90;40.00
20911;DHT22;10615;42.702;23.314;2023-07-29T04:48:47;32.20;39.40
20911;DHT22;10615;42.702;23.314;2023-07-29T04:49:48;32.70;38.80
20911;DHT22;10615;42.702;23.314;2023-07-29T04:50:48;33.20;37.90
20911;DHT22;10615;42.702;23.314;2023-07-29T04:51:49;33.70;37.30
20911;DHT22;10615;42.702;23.314;2023-07-29T04:52:49;34.20;36.30
20911;DHT22;10615;42.702;23.314;2023-07-29T04:53:50;34.80;35.70
20911;DHT22;10615;42.702;23.314;2023-07-29T04:54:51;35.30;34.70
20911;DHT22;10615;42.702;23.314;2023-07-29T04:55:51;35.80;34.00
20911;DHT22;10615;42.702;23.314;2023-07-29T04:56:52;36.50;33.40
20911;DHT22;10615;42.702;23.314;2023-07-29T04:57:53;37.00;32.40
20911;DHT22;10615;42.702;23.314;2023-07-29T04:58:53;37.60;31.80
20911;DHT22;10615;42.702;23.314;2023-07-29T04:59:54;38.40;31.10
20911;DHT22;10615;42.702;23.314;2023-07-29T05:00:55;39.00;30.20
20911;DHT22;10615;42.702;23.314;2023-07-29T05:01:56;39.60;29.60
20911;DHT22;10615;42.702;23.314;2023-07-29T05:02:57;40.00;29.20
20911;DHT22;10615;42.702;23.314;2023-07-29T05:03:57;40.40;28.70
20911;DHT22;10615;42.702;23.314;2023-07-29T05:04:58;40.80;28.20
20911;DHT22;10615;42.702;23.314;2023-07-29T05:05:59;41.20;27.80
20911;DHT22;10615;42.702;23.314;2023-07-29T05:07:00;41.60;27.50
20911;DHT22;10615;42.702;23.314;2023-07-29T05:08:00;42.00;27.20
20911;DHT22;10615;42.702;23.314;2023-07-29T05:09:16;42.10;26.90
20911;DHT22;10615;42.702;23.314;2023-07-29T05:10:17;42.40;26.70
20911;DHT22;10615;42.702;23.314;2023-07-29T05:11:17;42.40;26.50
20911;DHT22;10615;42.702;23.314;2023-07-29T05:12:18;42.00;26.20
20911;DHT22;10615;42.702;23.314;2023-07-29T05:13:19;41.50;26.00
20911;DHT22;10615;42.702;23.314;2023-07-29T05:14:20;40.80;26.20
20911;DHT22;10615;42.702;23.314;2023-07-29T05:15:20;40.20;26.50
20911;DHT22;10615;42.702;23.314;2023-07-29T05:16:21;39.80;26.80
20911;DHT22;10615;42.702;23.314;2023-07-29T05:17:22;39.40;27.10
20911;DHT22;10615;42.702;23.314;2023-07-29T05:18:22;39.10;27.40
20911;DHT22;10615;42.702;23.314;2023-07-29T05:19:23;38.70;27.60
20911;DHT22;10615;42.702;23.314;2023-07-29T05:20:24;38.50;27.90
20911;DHT22;10615;42.702;23.314;2023-07-29T05:21:25;38.40;28.00
20911;DHT22;10615;42.702;23.314;2023-07-29T05:22:25;38.80;28.30
20911;DHT22;10615;42.702;23.314;2023-07-29T05:23:26;39.30;28.20
20911;DHT22;10615;42.702;23.314;2023-07-29T05:24:27;40.00;28.00
20911;DHT22;10615;42.702;23.314;2023-07-29T05:25:28;40.60;27.80
20911;DHT22;10615;42.702;23.314;2023-07-29T05:26:29;41.40;27.50
20911;DHT22;10615;42.702;23.314;2023-07-29T05:27:30;42.10;27.10
20911;DHT22;10615;42.702;23.314;2023-07-29T05:28:30;43.00;26.60
20911;DHT22;10615;42.702;23.314;2023-07-29T05:29:31;43.80;26.00
20911;DHT22;10615;42.702;23.314;2023-07-29T05:30:33;44.60;25.50
20911;DHT22;10615;42.702;23.314;2023-07-29T05:31:37;45.40;25.00
20911;DHT22;10615;42.702;23.314;2023-07-29T05:32:38;46.30;24.30
20911;DHT22;10615;42.702;23.314;2023-07-29T05:33:39;46.90;23.80
20911;DHT22;10615;42.702;23.314;2023-07-29T05:34:39;47.70;22.80
20911;DHT22;10615;42.702;23.314;2023-07-29T05:35:40;48.30;22.90
20911;DHT22;10615;42.702;23.314;2023-07-29T05:36:41;49.20;21.50
20911;DHT22;10615;42.702;23.314;2023-07-29T05:37:41;49.30;21.90
20911;DHT22;10615;42.702;23.314;2023-07-29T05:38:42;50.00;21.60
20911;DHT22;10615;42.702;23.314;2023-07-29T05:39:43;50.50;21.30
20911;DHT22;10615;42.702;23.314;2023-07-29T05:40:44;51.10;21.00
20911;DHT22;10615;42.702;23.314;2023-07-29T05:41:44;51.50;20.60
20911;DHT22;10615;42.702;23.314;2023-07-29T05:42:46;51.70;20.20
20911;DHT22;10615;42.702;23.314;2023-07-29T05:43:48;52.00;20.10
20911;DHT22;10615;42.702;23.314;2023-07-29T05:44:49;52.50;19.90
20911;DHT22;10615;42.702;23.314;2023-07-29T05:45:49;52.70;20.10
20911;DHT22;10615;42.702;23.314;2023-07-29T05:46:51;53.00;19.30
20911;DHT22;10615;42.702;23.314;2023-07-29T05:47:52;53.40;19.20
20911;DHT22;10615;42.702;23.314;2023-07-29T05:48:52;53.70;18.90
20911;DHT22;10615;42.702;23.314;2023-07-29T05:49:53;53.90;18.70
20911;DHT22;10615;42.702;23.314;2023-07-29T05:50:55;54.20;18.60
20911;DHT22;10615;42.702;23.314;2023-07-29T05:51:55;54.50;18.40
20911;DHT22;10615;42.702;23.314;2023-07-29T05:52:56;54.70;18.20
20911;DHT22;10615;42.702;23.314;2023-07-29T05:53:57;54.90;18.00
20911;DHT22;10615;42.702;23.314;2023-07-29T05:54:58;55.20;18.00
20911;DHT22;10615;42.702;23.314;2023-07-29T05:55:58;55.50;17.80
20911;DHT22;10615;42.702;23.314;2023-07-29T05:56:59;55.60;17.60
20911;DHT22;10615;42.702;23.314;2023-07-29T05:58:00;55.90;17.60
20911;DHT22;10615;42.702;23.314;2023-07-29T05:59:00;56.20;17.40
20911;DHT22;10615;42.702;23.314;2023-07-29T06:00:01;56.30;17.20
20911;DHT22;10615;42.702;23.314;2023-07-29T06:01:02;56.50;17.10
20911;DHT22;10615;42.702;23.314;2023-07-29T06:02:03;56.70;17.00
20911;DHT22;10615;42.702;23.314;2023-07-29T06:03:03;56.90;17.00
20911;DHT22;10615;42.702;23.314;2023-07-29T06:04:04;57.00;16.80
20911;DHT22;10615;42.702;23.314;2023-07-29T06:05:05;57.10;16.70
20911;DHT22;10615;42.702;23.314;2023-07-29T06:06:05;57.10;16.60
20911;DHT22;10615;42.702;23.314;2023-07-29T06:07:07;57.10;16.60
20911;DHT22;10615;42.702;23.314;2023-07-29T06:08:07;57.30;16.50
20911;DHT22;10615;42.702;23.314;2023-07-29T06:09:09;57.40;16.40
20911;DHT22;10615;42.702;23.314;2023-07-29T06:10:11;57.70;16.40
20911;DHT22;10615;42.702;23.314;2023-07-29T06:11:12;57.90;16.30
20911;DHT22;10615;42.702;23.314;2023-07-29T06:12:13;58.00;16.20
20911;DHT22;10615;42.702;23.314;2023-07-29T06:13:14;58.30;16.10
20911;DHT22;10615;42.702;23.314;2023-07-29T06:14:15;58.50;16.00
20911;DHT22;10615;42.702;23.314;2023-07-29T06:15:15;58.60;15.70
20911;DHT22;10615;42.702;23.314;2023-07-29T06:16:16;58.40;15.60
20911;DHT22;10615;42.702;23.314;2023-07-29T06:17:17;58.40;15.70
20911;DHT22;10615;42.702;23.314;2023-07-29T06:18:17;58.50;15.70
20911;DHT22;10615;42.702;23.314;2023-07-29T06:19:19;58.70;15.70
20911;DHT22;10615;42.702;23.314;2023-07-29T06:20:20;58.70;15.60
20911;DHT22;10615;42.702;23.314;2023-07-29T06:22:22;59.20;15.00
20911;DHT22;10615;42.702;23.314;2023-07-29T06:23:22;59.10;15.40
20911;DHT22;10615;42.702;23.314;2023-07-29T06:24:23;58.90;15.40
20911;DHT22;10615;42.702;23.314;2023-07-29T06:25:24;58.90;15.30
20911;DHT22;10615;42.702;23.314;2023-07-29T06:26:24;58.90;15.40
20911;DHT22;10615;42.702;23.314;2023-07-29T06:27:25;59.20;15.50
20911;DHT22;10615;42.702;23.314;2023-07-29T06:28:26;59.30;16.00
20911;DHT22;10615;42.702;23.314;2023-07-29T06:29:27;59.30;15.40
20911;DHT22;10615;42.702;23.314;2023-07-29T06:30:27;59.30;15.30
20911;DHT22;10615;42.702;23.314;2023-07-29T06:31:28;59.00;15.30